< < Back
Terminal Aerodrome Forecast


Current Version              Previous Versions:   1  2  3  4  5  6  7  8  9  

Terminal Aerodrome Forecast

130
FTUS42 KFFC 232300
TAFCSG
TAF
KCSG 232331Z 2400/2424 24006KT P6SM SCT045
     FM240700 VRB03KT 4SM BR FEW025
     FM241400 26007KT P6SM BKN025
     FM241600 28008G16KT P6SM BKN035 PROB30 2417/2422 5SM TSRA BR
      BKN025CB
     FM242200 30007KT P6SM BKN035=



Latest METAR

720
SAUS70 KWBC 241000
MTRCSG
METAR KCSG 240951Z AUTO 23004KT 10SM BKN060 23/22 A2998 RMK AO2 SLP147
T02330222


USA.gov is the U.S. government's official web portal to all federal, state and local government web resources and services.